sensor_id;sensor_type;location;lat;lon;timestamp;P1;durP1;ratioP1;P2;durP2;ratioP2
3293;SDS011;1659;51.470;6.770;2024-03-02T00:00:36;3.63;;;2.23;;
3293;SDS011;1659;51.470;6.770;2024-03-02T00:03:03;2.67;;;2.03;;
3293;SDS011;1659;51.470;6.770;2024-03-02T00:05:32;6.67;;;2.63;;
3293;SDS011;1659;51.470;6.770;2024-03-02T00:07:58;2.40;;;2.30;;
3293;SDS011;1659;51.470;6.770;2024-03-02T00:10:26;2.90;;;2.20;;
3293;SDS011;1659;51.470;6.770;2024-03-02T00:13:00;3.63;;;2.27;;
3293;SDS011;1659;51.470;6.770;2024-03-02T00:15:35;2.50;;;2.30;;
3293;SDS011;1659;51.470;6.770;2024-03-02T00:18:07;2.40;;;2.30;;
3293;SDS011;1659;51.470;6.770;2024-03-02T00:20:38;2.80;;;2.50;;
3293;SDS011;1659;51.470;6.770;2024-03-02T00:23:05;2.17;;;2.00;;
3293;SDS011;1659;51.470;6.770;2024-03-02T00:25:36;4.07;;;2.80;;
3293;SDS011;1659;51.470;6.770;2024-03-02T00:28:05;4.40;;;2.20;;
3293;SDS011;1659;51.470;6.770;2024-03-02T00:30:41;2.73;;;2.27;;
3293;SDS011;1659;51.470;6.770;2024-03-02T00:33:28;2.30;;;1.70;;
3293;SDS011;1659;51.470;6.770;2024-03-02T00:35:59;2.47;;;1.90;;
3293;SDS011;1659;51.470;6.770;2024-03-02T00:38:26;2.90;;;2.70;;
3293;SDS011;1659;51.470;6.770;2024-03-02T00:40:53;3.33;;;2.73;;
3293;SDS011;1659;51.470;6.770;2024-03-02T00:46:12;2.20;;;2.10;;
3293;SDS011;1659;51.470;6.770;2024-03-02T00:48:40;3.00;;;2.70;;
3293;SDS011;1659;51.470;6.770;2024-03-02T00:51:20;2.63;;;2.53;;
3293;SDS011;1659;51.470;6.770;2024-03-02T00:53:48;4.53;;;2.10;;
3293;SDS011;1659;51.470;6.770;2024-03-02T00:56:14;2.10;;;1.90;;
3293;SDS011;1659;51.470;6.770;2024-03-02T00:58:42;3.87;;;2.40;;
3293;SDS011;1659;51.470;6.770;2024-03-02T01:01:08;2.43;;;2.23;;
3293;SDS011;1659;51.470;6.770;2024-03-02T01:03:35;2.33;;;2.13;;
3293;SDS011;1659;51.470;6.770;2024-03-02T01:06:02;2.67;;;2.47;;
3293;SDS011;1659;51.470;6.770;2024-03-02T01:08:31;3.87;;;2.23;;
3293;SDS011;1659;51.470;6.770;2024-03-02T01:10:57;3.17;;;2.30;;
3293;SDS011;1659;51.470;6.770;2024-03-02T01:13:24;2.57;;;2.37;;
3293;SDS011;1659;51.470;6.770;2024-03-02T01:15:51;1.70;;;1.60;;
3293;SDS011;1659;51.470;6.770;2024-03-02T01:18:18;2.43;;;2.23;;
3293;SDS011;1659;51.470;6.770;2024-03-02T01:20:45;2.00;;;1.90;;
3293;SDS011;1659;51.470;6.770;2024-03-02T01:23:11;2.27;;;2.07;;
3293;SDS011;1659;51.470;6.770;2024-03-02T01:25:39;4.97;;;2.53;;
3293;SDS011;1659;51.470;6.770;2024-03-02T01:28:06;4.20;;;3.90;;
3293;SDS011;1659;51.470;6.770;2024-03-02T01:30:33;2.20;;;2.10;;
3293;SDS011;1659;51.470;6.770;2024-03-02T01:33:00;2.83;;;2.13;;
3293;SDS011;1659;51.470;6.770;2024-03-02T01:35:27;2.10;;;2.00;;
3293;SDS011;1659;51.470;6.770;2024-03-02T01:37:53;1.70;;;1.60;;
3293;SDS011;1659;51.470;6.770;2024-03-02T01:40:20;2.43;;;2.23;;
3293;SDS011;1659;51.470;6.770;2024-03-02T01:42:50;5.50;;;2.40;;
3293;SDS011;1659;51.470;6.770;2024-03-02T01:45:16;3.60;;;2.00;;
3293;SDS011;1659;51.470;6.770;2024-03-02T01:47:43;2.97;;;2.67;;
3293;SDS011;1659;51.470;6.770;2024-03-02T01:50:09;2.83;;;2.10;;
3293;SDS011;1659;51.470;6.770;2024-03-02T01:52:38;2.87;;;2.30;;
3293;SDS011;1659;51.470;6.770;2024-03-02T01:55:05;2.40;;;2.23;;
3293;SDS011;1659;51.470;6.770;2024-03-02T01:57:32;2.63;;;2.10;;
3293;SDS011;1659;51.470;6.770;2024-03-02T02:00:00;2.77;;;2.33;;
3293;SDS011;1659;51.470;6.770;2024-03-02T02:02:28;6.60;;;2.53;;
3293;SDS011;1659;51.470;6.770;2024-03-02T02:04:55;2.47;;;2.33;;
3293;SDS011;1659;51.470;6.770;2024-03-02T02:07:21;2.20;;;2.10;;
3293;SDS011;1659;51.470;6.770;2024-03-02T02:09:48;3.97;;;2.60;;
3293;SDS011;1659;51.470;6.770;2024-03-02T02:12:14;2.70;;;2.20;;
3293;SDS011;1659;51.470;6.770;2024-03-02T02:14:46;4.87;;;2.50;;
3293;SDS011;1659;51.470;6.770;2024-03-02T02:17:15;2.13;;;1.93;;
3293;SDS011;1659;51.470;6.770;2024-03-02T02:19:41;2.43;;;2.00;;
3293;SDS011;1659;51.470;6.770;2024-03-02T02:22:10;2.93;;;2.43;;
3293;SDS011;1659;51.470;6.770;2024-03-02T02:24:39;1.83;;;1.73;;
3293;SDS011;1659;51.470;6.770;2024-03-02T02:27:06;4.87;;;2.83;;
3293;SDS011;1659;51.470;6.770;2024-03-02T02:29:32;3.20;;;2.10;;
3293;SDS011;1659;51.470;6.770;2024-03-02T02:31:59;2.43;;;2.27;;
3293;SDS011;1659;51.470;6.770;2024-03-02T02:34:25;2.07;;;1.97;;
3293;SDS011;1659;51.470;6.770;2024-03-02T02:36:52;2.00;;;1.90;;
3293;SDS011;1659;51.470;6.770;2024-03-02T02:39:21;2.27;;;2.07;;
3293;SDS011;1659;51.470;6.770;2024-03-02T02:41:48;3.27;;;2.40;;
3293;SDS011;1659;51.470;6.770;2024-03-02T02:44:14;2.30;;;2.10;;
3293;SDS011;1659;51.470;6.770;2024-03-02T02:46:41;2.63;;;2.43;;
3293;SDS011;1659;51.470;6.770;2024-03-02T02:49:08;2.60;;;2.23;;
3293;SDS011;1659;51.470;6.770;2024-03-02T02:51:34;2.10;;;1.90;;
3293;SDS011;1659;51.470;6.770;2024-03-02T02:54:01;2.40;;;2.20;;
3293;SDS011;1659;51.470;6.770;2024-03-02T02:56:29;4.63;;;1.83;;
3293;SDS011;1659;51.470;6.770;2024-03-02T02:58:56;2.47;;;2.27;;
3293;SDS011;1659;51.470;6.770;2024-03-02T03:01:22;2.40;;;2.30;;
3293;SDS011;1659;51.470;6.770;2024-03-02T03:03:49;2.10;;;1.83;;
3293;SDS011;1659;51.470;6.770;2024-03-02T03:06:15;3.90;;;2.60;;
3293;SDS011;1659;51.470;6.770;2024-03-02T03:08:42;2.50;;;1.73;;
3293;SDS011;1659;51.470;6.770;2024-03-02T03:11:08;2.13;;;1.90;;
3293;SDS011;1659;51.470;6.770;2024-03-02T03:13:36;2.60;;;2.10;;
3293;SDS011;1659;51.470;6.770;2024-03-02T03:16:03;2.63;;;1.97;;
3293;SDS011;1659;51.470;6.770;2024-03-02T03:18:30;2.33;;;2.13;;
3293;SDS011;1659;51.470;6.770;2024-03-02T03:20:57;5.90;;;2.27;;
3293;SDS011;1659;51.470;6.770;2024-03-02T03:23:23;4.57;;;2.10;;
3293;SDS011;1659;51.470;6.770;2024-03-02T03:25:50;2.70;;;2.50;;
3293;SDS011;1659;51.470;6.770;2024-03-02T03:28:17;3.78;;;2.00;;
3293;SDS011;1659;51.470;6.770;2024-03-02T03:30:45;2.50;;;2.30;;
3293;SDS011;1659;51.470;6.770;2024-03-02T03:33:11;2.57;;;2.37;;
3293;SDS011;1659;51.470;6.770;2024-03-02T03:35:38;2.50;;;2.30;;
3293;SDS011;1659;51.470;6.770;2024-03-02T03:38:05;3.67;;;2.40;;
3293;SDS011;1659;51.470;6.770;2024-03-02T03:40:31;3.97;;;2.63;;
3293;SDS011;1659;51.470;6.770;2024-03-02T03:42:58;4.00;;;2.60;;
3293;SDS011;1659;51.470;6.770;2024-03-02T03:45:25;3.17;;;2.83;;
3293;SDS011;1659;51.470;6.770;2024-03-02T03:47:53;2.83;;;2.63;;
3293;SDS011;1659;51.470;6.770;2024-03-02T03:50:19;5.70;;;2.57;;
3293;SDS011;1659;51.470;6.770;2024-03-02T03:52:46;4.57;;;3.13;;
3293;SDS011;1659;51.470;6.770;2024-03-02T03:55:12;9.33;;;3.70;;
3293;SDS011;1659;51.470;6.770;2024-03-02T03:57:39;4.37;;;3.00;;
3293;SDS011;1659;51.470;6.770;2024-03-02T04:00:06;6.83;;;3.87;;
3293;SDS011;1659;51.470;6.770;2024-03-02T04:02:35;4.77;;;3.70;;
3293;SDS011;1659;51.470;6.770;2024-03-02T04:05:03;4.73;;;3.60;;
3293;SDS011;1659;51.470;6.770;2024-03-02T04:07:33;3.80;;;2.87;;
3293;SDS011;1659;51.470;6.770;2024-03-02T04:10:05;3.70;;;3.40;;
3293;SDS011;1659;51.470;6.770;2024-03-02T04:12:33;7.20;;;3.10;;
3293;SDS011;1659;51.470;6.770;2024-03-02T04:15:00;3.70;;;3.10;;
3293;SDS011;1659;51.470;6.770;2024-03-02T04:17:29;2.90;;;2.70;;
3293;SDS011;1659;51.470;6.770;2024-03-02T04:19:55;5.13;;;3.30;;
3293;SDS011;1659;51.470;6.770;2024-03-02T04:22:23;4.47;;;2.80;;
3293;SDS011;1659;51.470;6.770;2024-03-02T04:24:50;3.77;;;3.00;;
3293;SDS011;1659;51.470;6.770;2024-03-02T04:27:16;3.07;;;2.40;;
3293;SDS011;1659;51.470;6.770;2024-03-02T04:29:43;3.70;;;2.90;;
3293;SDS011;1659;51.470;6.770;2024-03-02T04:32:09;3.90;;;3.00;;
3293;SDS011;1659;51.470;6.770;2024-03-02T04:34:36;9.93;;;2.87;;
3293;SDS011;1659;51.470;6.770;2024-03-02T04:37:02;3.93;;;2.67;;
3293;SDS011;1659;51.470;6.770;2024-03-02T04:39:31;6.87;;;2.80;;
3293;SDS011;1659;51.470;6.770;2024-03-02T04:41:56;3.90;;;2.83;;
3293;SDS011;1659;51.470;6.770;2024-03-02T04:44:23;2.97;;;2.77;;
3293;SDS011;1659;51.470;6.770;2024-03-02T04:46:50;3.97;;;2.80;;
3293;SDS011;1659;51.470;6.770;2024-03-02T04:49:16;4.30;;;2.80;;
3293;SDS011;1659;51.470;6.770;2024-03-02T04:51:43;3.07;;;2.80;;
3293;SDS011;1659;51.470;6.770;2024-03-02T04:54:09;4.17;;;2.90;;
3293;SDS011;1659;51.470;6.770;2024-03-02T04:56:37;3.23;;;2.60;;
3293;SDS011;1659;51.470;6.770;2024-03-02T04:59:09;11.50;;;3.40;;
3293;SDS011;1659;51.470;6.770;2024-03-02T05:01:36;10.37;;;3.23;;
3293;SDS011;1659;51.470;6.770;2024-03-02T05:04:03;3.93;;;2.50;;
3293;SDS011;1659;51.470;6.770;2024-03-02T05:06:29;6.63;;;2.87;;
3293;SDS011;1659;51.470;6.770;2024-03-02T05:08:56;2.50;;;2.30;;
3293;SDS011;1659;51.470;6.770;2024-03-02T05:11:22;2.27;;;2.17;;
3293;SDS011;1659;51.470;6.770;2024-03-02T05:14:16;2.97;;;2.73;;
3293;SDS011;1659;51.470;6.770;2024-03-02T05:16:43;3.20;;;2.40;;
3293;SDS011;1659;51.470;6.770;2024-03-02T05:19:09;3.20;;;2.43;;
3293;SDS011;1659;51.470;6.770;2024-03-02T05:21:36;8.80;;;2.60;;
3293;SDS011;1659;51.470;6.770;2024-03-02T05:24:02;2.70;;;2.43;;
3293;SDS011;1659;51.470;6.770;2024-03-02T05:26:29;2.83;;;2.20;;
3293;SDS011;1659;51.470;6.770;2024-03-02T05:28:56;2.83;;;2.33;;
3293;SDS011;1659;51.470;6.770;2024-03-02T05:31:24;5.57;;;2.70;;
3293;SDS011;1659;51.470;6.770;2024-03-02T05:33:50;5.47;;;3.50;;
3293;SDS011;1659;51.470;6.770;2024-03-02T05:36:17;2.97;;;2.07;;
3293;SDS011;1659;51.470;6.770;2024-03-02T05:38:45;3.33;;;3.00;;
3293;SDS011;1659;51.470;6.770;2024-03-02T05:41:12;5.10;;;2.67;;
3293;SDS011;1659;51.470;6.770;2024-03-02T05:43:38;4.07;;;3.63;;
3293;SDS011;1659;51.470;6.770;2024-03-02T05:46:05;3.97;;;2.87;;
3293;SDS011;1659;51.470;6.770;2024-03-02T05:48:33;3.90;;;2.60;;
3293;SDS011;1659;51.470;6.770;2024-03-02T05:50:59;2.63;;;2.43;;
3293;SDS011;1659;51.470;6.770;2024-03-02T05:53:26;4.07;;;2.90;;
3293;SDS011;1659;51.470;6.770;2024-03-02T05:55:53;3.83;;;2.43;;
3293;SDS011;1659;51.470;6.770;2024-03-02T05:58:20;3.40;;;2.67;;
3293;SDS011;1659;51.470;6.770;2024-03-02T06:00:57;5.57;;;2.90;;
3293;SDS011;1659;51.470;6.770;2024-03-02T06:03:24;3.27;;;2.43;;
3293;SDS011;1659;51.470;6.770;2024-03-02T06:05:52;4.33;;;2.93;;
3293;SDS011;1659;51.470;6.770;2024-03-02T06:08:18;2.60;;;2.30;;
3293;SDS011;1659;51.470;6.770;2024-03-02T06:10:45;3.10;;;2.50;;
3293;SDS011;1659;51.470;6.770;2024-03-02T06:13:12;3.30;;;2.57;;
3293;SDS011;1659;51.470;6.770;2024-03-02T06:15:38;3.53;;;3.20;;
3293;SDS011;1659;51.470;6.770;2024-03-02T06:18:05;2.93;;;2.57;;
3293;SDS011;1659;51.470;6.770;2024-03-02T06:20:32;2.53;;;2.33;;
3293;SDS011;1659;51.470;6.770;2024-03-02T06:23:00;3.90;;;2.40;;
3293;SDS011;1659;51.470;6.770;2024-03-02T06:25:27;3.33;;;2.83;;
3293;SDS011;1659;51.470;6.770;2024-03-02T06:27:53;2.33;;;2.20;;
3293;SDS011;1659;51.470;6.770;2024-03-02T06:30:20;2.50;;;2.30;;
3293;SDS011;1659;51.470;6.770;2024-03-02T06:32:47;4.53;;;2.50;;
3293;SDS011;1659;51.470;6.770;2024-03-02T06:35:13;5.97;;;2.37;;
3293;SDS011;1659;51.470;6.770;2024-03-02T06:37:40;3.90;;;2.57;;
3293;SDS011;1659;51.470;6.770;2024-03-02T06:40:08;2.30;;;2.20;;
3293;SDS011;1659;51.470;6.770;2024-03-02T06:42:35;2.83;;;2.60;;
3293;SDS011;1659;51.470;6.770;2024-03-02T06:45:02;2.87;;;2.60;;
3293;SDS011;1659;51.470;6.770;2024-03-02T06:47:29;2.60;;;2.30;;
3293;SDS011;1659;51.470;6.770;2024-03-02T06:49:56;4.20;;;2.50;;
3293;SDS011;1659;51.470;6.770;2024-03-02T06:52:23;3.13;;;2.90;;
3293;SDS011;1659;51.470;6.770;2024-03-02T06:54:50;5.17;;;3.43;;
3293;SDS011;1659;51.470;6.770;2024-03-02T06:57:18;3.07;;;2.77;;
3293;SDS011;1659;51.470;6.770;2024-03-02T06:59:46;3.10;;;2.80;;
3293;SDS011;1659;51.470;6.770;2024-03-02T07:02:15;4.60;;;2.43;;
3293;SDS011;1659;51.470;6.770;2024-03-02T07:04:41;5.23;;;2.83;;
3293;SDS011;1659;51.470;6.770;2024-03-02T07:07:08;6.53;;;2.70;;
3293;SDS011;1659;51.470;6.770;2024-03-02T07:09:35;3.93;;;3.00;;
3293;SDS011;1659;51.470;6.770;2024-03-02T07:12:01;2.90;;;2.70;;
3293;SDS011;1659;51.470;6.770;2024-03-02T07:14:29;3.10;;;2.80;;
3293;SDS011;1659;51.470;6.770;2024-03-02T07:17:10;3.43;;;3.13;;
3293;SDS011;1659;51.470;6.770;2024-03-02T07:19:37;3.00;;;2.80;;
3293;SDS011;1659;51.470;6.770;2024-03-02T07:22:05;4.97;;;3.33;;
3293;SDS011;1659;51.470;6.770;2024-03-02T07:24:33;3.17;;;2.97;;
3293;SDS011;1659;51.470;6.770;2024-03-02T07:27:05;6.53;;;3.17;;
3293;SDS011;1659;51.470;6.770;2024-03-02T07:29:33;3.27;;;2.43;;
3293;SDS011;1659;51.470;6.770;2024-03-02T07:32:00;3.40;;;3.10;;
3293;SDS011;1659;51.470;6.770;2024-03-02T07:34:26;3.93;;;2.73;;
3293;SDS011;1659;51.470;6.770;2024-03-02T07:36:53;4.37;;;3.33;;
3293;SDS011;1659;51.470;6.770;2024-03-02T07:39:20;5.40;;;3.00;;
3293;SDS011;1659;51.470;6.770;2024-03-02T07:41:46;3.83;;;3.37;;
3293;SDS011;1659;51.470;6.770;2024-03-02T07:44:13;4.00;;;3.50;;
3293;SDS011;1659;51.470;6.770;2024-03-02T07:46:41;5.13;;;3.20;;
3293;SDS011;1659;51.470;6.770;2024-03-02T07:49:08;4.20;;;2.90;;
3293;SDS011;1659;51.470;6.770;2024-03-02T07:51:35;3.20;;;3.00;;
3293;SDS011;1659;51.470;6.770;2024-03-02T07:54:02;3.23;;;2.93;;
3293;SDS011;1659;51.470;6.770;2024-03-02T07:56:29;3.03;;;2.83;;
3293;SDS011;1659;51.470;6.770;2024-03-02T07:58:55;4.30;;;3.10;;
3293;SDS011;1659;51.470;6.770;2024-03-02T08:01:26;4.07;;;3.20;;
3293;SDS011;1659;51.470;6.770;2024-03-02T08:03:54;3.67;;;3.07;;
3293;SDS011;1659;51.470;6.770;2024-03-02T08:06:23;3.50;;;3.10;;
3293;SDS011;1659;51.470;6.770;2024-03-02T08:08:52;4.53;;;3.33;;
3293;SDS011;1659;51.470;6.770;2024-03-02T08:11:19;6.67;;;3.67;;
3293;SDS011;1659;51.470;6.770;2024-03-02T08:13:45;4.30;;;3.00;;
3293;SDS011;1659;51.470;6.770;2024-03-02T08:16:12;4.77;;;3.40;;
3293;SDS011;1659;51.470;6.770;2024-03-02T08:18:39;5.60;;;3.00;;
3293;SDS011;1659;51.470;6.770;2024-03-02T08:21:07;6.23;;;4.00;;
3293;SDS011;1659;51.470;6.770;2024-03-02T08:23:34;4.77;;;2.90;;
3293;SDS011;1659;51.470;6.770;2024-03-02T08:26:01;3.70;;;3.40;;
3293;SDS011;1659;51.470;6.770;2024-03-02T08:28:28;4.57;;;3.63;;
3293;SDS011;1659;51.470;6.770;2024-03-02T08:30:54;3.30;;;3.00;;
3293;SDS011;1659;51.470;6.770;2024-03-02T08:33:21;5.53;;;3.43;;
3293;SDS011;1659;51.470;6.770;2024-03-02T08:35:48;5.97;;;3.47;;
3293;SDS011;1659;51.470;6.770;2024-03-02T08:38:16;4.03;;;3.63;;
3293;SDS011;1659;51.470;6.770;2024-03-02T08:40:43;4.73;;;3.20;;
3293;SDS011;1659;51.470;6.770;2024-03-02T08:43:10;3.40;;;3.13;;
3293;SDS011;1659;51.470;6.770;2024-03-02T08:45:37;3.17;;;2.93;;
3293;SDS011;1659;51.470;6.770;2024-03-02T08:48:05;4.97;;;3.20;;
3293;SDS011;1659;51.470;6.770;2024-03-02T08:50:33;3.50;;;3.20;;
3293;SDS011;1659;51.470;6.770;2024-03-02T08:53:00;4.70;;;3.60;;
3293;SDS011;1659;51.470;6.770;2024-03-02T08:55:28;4.47;;;3.73;;
3293;SDS011;1659;51.470;6.770;2024-03-02T08:57:54;5.50;;;3.20;;
3293;SDS011;1659;51.470;6.770;2024-03-02T09:00:21;4.07;;;3.27;;
3293;SDS011;1659;51.470;6.770;2024-03-02T09:02:48;6.93;;;2.70;;
3293;SDS011;1659;51.470;6.770;2024-03-02T09:05:15;5.20;;;3.63;;
3293;SDS011;1659;51.470;6.770;2024-03-02T09:07:42;4.40;;;3.23;;
3293;SDS011;1659;51.470;6.770;2024-03-02T09:10:09;3.00;;;2.80;;
3293;SDS011;1659;51.470;6.770;2024-03-02T09:12:37;4.93;;;3.07;;
3293;SDS011;1659;51.470;6.770;2024-03-02T09:15:04;4.20;;;2.60;;
3293;SDS011;1659;51.470;6.770;2024-03-02T09:17:32;4.00;;;2.83;;
3293;SDS011;1659;51.470;6.770;2024-03-02T09:19:59;4.60;;;3.37;;
3293;SDS011;1659;51.470;6.770;2024-03-02T09:22:25;4.63;;;2.87;;
3293;SDS011;1659;51.470;6.770;2024-03-02T09:24:52;3.53;;;3.23;;
3293;SDS011;1659;51.470;6.770;2024-03-02T09:27:18;3.70;;;3.00;;
3293;SDS011;1659;51.470;6.770;2024-03-02T09:29:46;5.60;;;2.97;;
3293;SDS011;1659;51.470;6.770;2024-03-02T09:32:13;5.70;;;2.80;;
3293;SDS011;1659;51.470;6.770;2024-03-02T09:34:40;2.50;;;2.30;;
3293;SDS011;1659;51.470;6.770;2024-03-02T09:37:08;4.50;;;2.37;;
3293;SDS011;1659;51.470;6.770;2024-03-02T09:39:35;2.77;;;2.57;;
3293;SDS011;1659;51.470;6.770;2024-03-02T09:42:01;6.10;;;3.40;;
3293;SDS011;1659;51.470;6.770;2024-03-02T09:44:30;3.63;;;2.60;;
3293;SDS011;1659;51.470;6.770;2024-03-02T09:46:58;2.83;;;2.63;;
3293;SDS011;1659;51.470;6.770;2024-03-02T09:49:25;8.60;;;2.40;;
3293;SDS011;1659;51.470;6.770;2024-03-02T09:51:52;4.50;;;2.20;;
3293;SDS011;1659;51.470;6.770;2024-03-02T09:54:19;2.20;;;2.07;;
3293;SDS011;1659;51.470;6.770;2024-03-02T09:56:46;3.17;;;2.63;;
3293;SDS011;1659;51.470;6.770;2024-03-02T09:59:12;8.30;;;2.33;;
3293;SDS011;1659;51.470;6.770;2024-03-02T10:01:54;2.10;;;2.00;;
3293;SDS011;1659;51.470;6.770;2024-03-02T10:04:23;3.70;;;2.20;;
3293;SDS011;1659;51.470;6.770;2024-03-02T10:06:51;2.83;;;2.30;;
3293;SDS011;1659;51.470;6.770;2024-03-02T10:09:35;3.00;;;2.73;;
3293;SDS011;1659;51.470;6.770;2024-03-02T10:12:03;2.40;;;2.20;;
3293;SDS011;1659;51.470;6.770;2024-03-02T10:14:31;2.23;;;1.60;;
3293;SDS011;1659;51.470;6.770;2024-03-02T10:17:01;4.10;;;1.90;;
3293;SDS011;1659;51.470;6.770;2024-03-02T10:19:31;1.73;;;1.63;;
3293;SDS011;1659;51.470;6.770;2024-03-02T10:21:59;2.40;;;1.83;;
3293;SDS011;1659;51.470;6.770;2024-03-02T10:24:28;4.83;;;2.30;;
3293;SDS011;1659;51.470;6.770;2024-03-02T10:27:02;2.03;;;1.63;;
3293;SDS011;1659;51.470;6.770;2024-03-02T10:29:36;1.80;;;1.70;;
3293;SDS011;1659;51.470;6.770;2024-03-02T10:32:04;3.90;;;1.70;;
3293;SDS011;1659;51.470;6.770;2024-03-02T10:34:33;1.90;;;1.53;;
3293;SDS011;1659;51.470;6.770;2024-03-02T10:36:59;1.93;;;1.60;;
3293;SDS011;1659;51.470;6.770;2024-03-02T10:39:26;2.70;;;1.70;;
3293;SDS011;1659;51.470;6.770;2024-03-02T10:41:54;4.13;;;2.30;;
3293;SDS011;1659;51.470;6.770;2024-03-02T10:44:22;3.30;;;2.47;;
3293;SDS011;1659;51.470;6.770;2024-03-02T10:46:50;7.33;;;2.27;;
3293;SDS011;1659;51.470;6.770;2024-03-02T10:49:19;2.10;;;1.90;;
3293;SDS011;1659;51.470;6.770;2024-03-02T10:51:50;2.30;;;2.10;;
3293;SDS011;1659;51.470;6.770;2024-03-02T10:54:17;1.97;;;1.80;;
3293;SDS011;1659;51.470;6.770;2024-03-02T10:56:50;3.40;;;1.90;;
3293;SDS011;1659;51.470;6.770;2024-03-02T10:59:21;2.23;;;2.03;;
3293;SDS011;1659;51.470;6.770;2024-03-02T11:01:53;2.03;;;1.93;;
3293;SDS011;1659;51.470;6.770;2024-03-02T11:04:22;1.93;;;1.80;;
3293;SDS011;1659;51.470;6.770;2024-03-02T11:06:52;2.70;;;2.50;;
3293;SDS011;1659;51.470;6.770;2024-03-02T11:09:24;4.53;;;1.57;;
3293;SDS011;1659;51.470;6.770;2024-03-02T11:11:56;4.63;;;1.90;;
3293;SDS011;1659;51.470;6.770;2024-03-02T11:14:29;1.87;;;1.73;;
3293;SDS011;1659;51.470;6.770;2024-03-02T11:17:00;2.43;;;1.50;;
3293;SDS011;1659;51.470;6.770;2024-03-02T11:19:29;2.03;;;1.83;;
3293;SDS011;1659;51.470;6.770;2024-03-02T11:21:58;1.63;;;1.53;;
3293;SDS011;1659;51.470;6.770;2024-03-02T11:24:29;1.97;;;1.80;;
3293;SDS011;1659;51.470;6.770;2024-03-02T11:26:59;2.53;;;1.63;;
3293;SDS011;1659;51.470;6.770;2024-03-02T11:29:42;4.20;;;1.80;;
3293;SDS011;1659;51.470;6.770;2024-03-02T11:32:13;2.00;;;1.83;;
3293;SDS011;1659;51.470;6.770;2024-03-02T11:34:40;2.80;;;2.03;;
3293;SDS011;1659;51.470;6.770;2024-03-02T11:37:11;1.67;;;1.57;;
3293;SDS011;1659;51.470;6.770;2024-03-02T11:39:38;4.50;;;2.33;;
3293;SDS011;1659;51.470;6.770;2024-03-02T11:42:06;2.33;;;2.13;;
3293;SDS011;1659;51.470;6.770;2024-03-02T11:44:34;2.63;;;2.43;;
3293;SDS011;1659;51.470;6.770;2024-03-02T11:47:01;4.23;;;2.47;;
3293;SDS011;1659;51.470;6.770;2024-03-02T11:49:37;2.73;;;2.00;;
3293;SDS011;1659;51.470;6.770;2024-03-02T11:52:05;3.63;;;2.30;;
3293;SDS011;1659;51.470;6.770;2024-03-02T11:54:34;2.97;;;2.23;;
3293;SDS011;1659;51.470;6.770;2024-03-02T11:57:01;2.60;;;2.40;;
3293;SDS011;1659;51.470;6.770;2024-03-02T11:59:28;4.73;;;2.43;;
3293;SDS011;1659;51.470;6.770;2024-03-02T12:01:55;2.23;;;2.13;;
3293;SDS011;1659;51.470;6.770;2024-03-02T12:04:23;3.47;;;2.50;;
3293;SDS011;1659;51.470;6.770;2024-03-02T12:06:54;6.20;;;2.33;;
3293;SDS011;1659;51.470;6.770;2024-03-02T12:09:21;2.53;;;1.73;;
3293;SDS011;1659;51.470;6.770;2024-03-02T12:11:48;2.10;;;1.90;;
3293;SDS011;1659;51.470;6.770;2024-03-02T12:14:28;3.10;;;2.20;;
3293;SDS011;1659;51.470;6.770;2024-03-02T12:16:55;1.83;;;1.67;;
3293;SDS011;1659;51.470;6.770;2024-03-02T12:19:23;13.27;;;2.63;;
3293;SDS011;1659;51.470;6.770;2024-03-02T12:21:50;3.43;;;1.60;;
3293;SDS011;1659;51.470;6.770;2024-03-02T12:24:16;1.97;;;1.87;;
3293;SDS011;1659;51.470;6.770;2024-03-02T12:26:43;2.10;;;1.90;;
3293;SDS011;1659;51.470;6.770;2024-03-02T12:29:12;5.00;;;2.00;;
3293;SDS011;1659;51.470;6.770;2024-03-02T12:31:40;2.03;;;1.90;;
3293;SDS011;1659;51.470;6.770;2024-03-02T12:34:06;2.07;;;1.73;;
3293;SDS011;1659;51.470;6.770;2024-03-02T12:36:36;3.90;;;2.20;;
3293;SDS011;1659;51.470;6.770;2024-03-02T12:39:03;7.63;;;2.20;;
3293;SDS011;1659;51.470;6.770;2024-03-02T12:41:30;3.60;;;2.43;;
3293;SDS011;1659;51.470;6.770;2024-03-02T12:43:55;2.43;;;2.17;;
3293;SDS011;1659;51.470;6.770;2024-03-02T12:46:24;5.23;;;2.00;;
3293;SDS011;1659;51.470;6.770;2024-03-02T12:48:51;2.40;;;2.07;;
3293;SDS011;1659;51.470;6.770;2024-03-02T12:51:17;2.37;;;2.17;;
3293;SDS011;1659;51.470;6.770;2024-03-02T12:53:44;2.30;;;2.10;;
3293;SDS011;1659;51.470;6.770;2024-03-02T12:56:10;2.70;;;2.40;;
3293;SDS011;1659;51.470;6.770;2024-03-02T12:58:38;2.80;;;1.97;;
3293;SDS011;1659;51.470;6.770;2024-03-02T13:01:05;2.50;;;2.30;;
3293;SDS011;1659;51.470;6.770;2024-03-02T13:03:36;3.43;;;2.03;;
3293;SDS011;1659;51.470;6.770;2024-03-02T13:06:04;2.87;;;2.60;;
3293;SDS011;1659;51.470;6.770;2024-03-02T13:08:31;2.70;;;1.90;;
3293;SDS011;1659;51.470;6.770;2024-03-02T13:10:58;2.30;;;1.57;;
3293;SDS011;1659;51.470;6.770;2024-03-02T13:13:25;2.40;;;2.07;;
3293;SDS011;1659;51.470;6.770;2024-03-02T13:15:54;3.17;;;2.00;;
3293;SDS011;1659;51.470;6.770;2024-03-02T13:18:21;2.10;;;1.90;;
3293;SDS011;1659;51.470;6.770;2024-03-02T13:20:49;2.00;;;1.90;;
3293;SDS011;1659;51.470;6.770;2024-03-02T13:23:16;2.30;;;1.83;;
3293;SDS011;1659;51.470;6.770;2024-03-02T13:25:42;4.37;;;2.10;;
3293;SDS011;1659;51.470;6.770;2024-03-02T13:28:09;1.77;;;1.67;;
3293;SDS011;1659;51.470;6.770;2024-03-02T13:30:36;2.37;;;1.90;;
3293;SDS011;1659;51.470;6.770;2024-03-02T13:33:03;1.77;;;1.67;;
3293;SDS011;1659;51.470;6.770;2024-03-02T13:35:30;3.67;;;1.80;;
3293;SDS011;1659;51.470;6.770;2024-03-02T13:37:58;3.20;;;2.03;;
3293;SDS011;1659;51.470;6.770;2024-03-02T13:40:25;2.10;;;1.90;;
3293;SDS011;1659;51.470;6.770;2024-03-02T13:42:52;1.60;;;1.50;;
3293;SDS011;1659;51.470;6.770;2024-03-02T13:45:19;3.73;;;2.33;;
3293;SDS011;1659;51.470;6.770;2024-03-02T13:47:46;2.63;;;1.67;;
3293;SDS011;1659;51.470;6.770;2024-03-02T13:50:12;2.63;;;2.43;;
3293;SDS011;1659;51.470;6.770;2024-03-02T13:52:39;2.80;;;1.70;;
3293;SDS011;1659;51.470;6.770;2024-03-02T13:55:07;1.90;;;1.80;;
3293;SDS011;1659;51.470;6.770;2024-03-02T13:57:34;2.50;;;2.00;;
3293;SDS011;1659;51.470;6.770;2024-03-02T14:00:00;2.10;;;1.90;;
3293;SDS011;1659;51.470;6.770;2024-03-02T14:02:28;2.73;;;2.07;;
3293;SDS011;1659;51.470;6.770;2024-03-02T14:04:54;1.83;;;1.70;;
3293;SDS011;1659;51.470;6.770;2024-03-02T14:07:21;2.40;;;2.20;;
3293;SDS011;1659;51.470;6.770;2024-03-02T14:09:48;5.87;;;1.60;;
3293;SDS011;1659;51.470;6.770;2024-03-02T14:12:15;1.87;;;1.73;;
3293;SDS011;1659;51.470;6.770;2024-03-02T14:14:42;1.30;;;1.30;;
3293;SDS011;1659;51.470;6.770;2024-03-02T14:17:08;2.30;;;1.90;;
3293;SDS011;1659;51.470;6.770;2024-03-02T14:19:39;1.93;;;1.80;;
3293;SDS011;1659;51.470;6.770;2024-03-02T14:22:06;1.67;;;1.57;;
3293;SDS011;1659;51.470;6.770;2024-03-02T14:24:32;2.53;;;1.43;;
3293;SDS011;1659;51.470;6.770;2024-03-02T14:26:59;2.10;;;1.60;;
3293;SDS011;1659;51.470;6.770;2024-03-02T14:29:29;1.83;;;1.73;;
3293;SDS011;1659;51.470;6.770;2024-03-02T14:31:56;2.10;;;1.90;;
3293;SDS011;1659;51.470;6.770;2024-03-02T14:34:22;1.90;;;1.80;;
3293;SDS011;1659;51.470;6.770;2024-03-02T14:36:49;1.50;;;1.40;;
3293;SDS011;1659;51.470;6.770;2024-03-02T14:39:16;1.93;;;1.83;;
3293;SDS011;1659;51.470;6.770;2024-03-02T14:41:44;2.13;;;1.43;;
3293;SDS011;1659;51.470;6.770;2024-03-02T14:44:10;1.57;;;1.47;;
3293;SDS011;1659;51.470;6.770;2024-03-02T14:46:38;1.43;;;1.43;;
3293;SDS011;1659;51.470;6.770;2024-03-02T14:49:05;1.80;;;1.70;;
3293;SDS011;1659;51.470;6.770;2024-03-02T14:51:32;2.43;;;1.53;;
3293;SDS011;1659;51.470;6.770;2024-03-02T14:53:59;2.60;;;1.70;;
3293;SDS011;1659;51.470;6.770;2024-03-02T14:56:26;2.30;;;2.00;;
3293;SDS011;1659;51.470;6.770;2024-03-02T14:58:53;1.50;;;1.40;;
3293;SDS011;1659;51.470;6.770;2024-03-02T15:01:20;3.90;;;1.83;;
3293;SDS011;1659;51.470;6.770;2024-03-02T15:03:49;3.07;;;2.40;;
3293;SDS011;1659;51.470;6.770;2024-03-02T15:06:16;1.37;;;1.27;;
3293;SDS011;1659;51.470;6.770;2024-03-02T15:08:42;2.63;;;2.13;;
3293;SDS011;1659;51.470;6.770;2024-03-02T15:11:11;3.60;;;2.33;;
3293;SDS011;1659;51.470;6.770;2024-03-02T15:13:38;1.40;;;1.30;;
3293;SDS011;1659;51.470;6.770;2024-03-02T15:16:05;1.70;;;1.60;;
3293;SDS011;1659;51.470;6.770;2024-03-02T15:18:32;1.50;;;1.40;;
3293;SDS011;1659;51.470;6.770;2024-03-02T15:21:01;2.00;;;1.90;;